sensor_id;sensor_type;location;lat;lon;timestamp;pressure;altitude;pressure_sealevel;temperature;humidity
62057;BME280;48016;50.284;18.860;2023-11-21T00:00:35;97302.92;;;7.41;93.80
62057;BME280;48016;50.284;18.860;2023-11-21T00:03:22;97303.05;;;7.41;93.78
62057;BME280;48016;50.284;18.860;2023-11-21T00:05:49;97303.94;;;7.37;93.66
62057;BME280;48016;50.284;18.860;2023-11-21T00:08:16;97304.77;;;7.35;93.62
62057;BME280;48016;50.284;18.860;2023-11-21T00:10:43;97306.68;;;7.32;93.74
62057;BME280;48016;50.284;18.860;2023-11-21T00:13:10;97307.75;;;7.32;93.69
62057;BME280;48016;50.284;18.860;2023-11-21T00:15:38;97310.98;;;7.30;93.72
62057;BME280;48016;50.284;18.860;2023-11-21T00:18:06;97312.79;;;7.29;93.85
62057;BME280;48016;50.284;18.860;2023-11-21T00:20:33;97314.56;;;7.30;93.95
62057;BME280;48016;50.284;18.860;2023-11-21T00:23:00;97313.08;;;7.31;93.86
62057;BME280;48016;50.284;18.860;2023-11-21T00:25:26;97317.39;;;7.32;93.96
62057;BME280;48016;50.284;18.860;2023-11-21T00:27:53;97325.46;;;7.33;94.08
62057;BME280;48016;50.284;18.860;2023-11-21T00:30:20;97327.90;;;7.35;94.05
62057;BME280;48016;50.284;18.860;2023-11-21T00:32:48;97327.58;;;7.34;93.92
62057;BME280;48016;50.284;18.860;2023-11-21T00:35:15;97329.03;;;7.35;93.96
62057;BME280;48016;50.284;18.860;2023-11-21T00:37:42;97325.48;;;7.34;93.98
62057;BME280;48016;50.284;18.860;2023-11-21T00:40:09;97330.43;;;7.34;94.17
62057;BME280;48016;50.284;18.860;2023-11-21T00:42:36;97333.13;;;7.36;94.31
62057;BME280;48016;50.284;18.860;2023-11-21T00:45:03;97328.13;;;7.36;94.38
62057;BME280;48016;50.284;18.860;2023-11-21T00:47:29;97327.70;;;7.39;94.50
62057;BME280;48016;50.284;18.860;2023-11-21T00:49:56;97328.26;;;7.40;94.52
62057;BME280;48016;50.284;18.860;2023-11-21T00:52:23;97328.09;;;7.40;94.57
62057;BME280;48016;50.284;18.860;2023-11-21T00:54:49;97326.55;;;7.41;94.65
62057;BME280;48016;50.284;18.860;2023-11-21T00:57:16;97327.46;;;7.41;94.78
62057;BME280;48016;50.284;18.860;2023-11-21T00:59:42;97322.89;;;7.41;94.71
62057;BME280;48016;50.284;18.860;2023-11-21T01:02:09;97329.08;;;7.42;94.69
62057;BME280;48016;50.284;18.860;2023-11-21T01:04:37;97328.97;;;7.43;94.71
62057;BME280;48016;50.284;18.860;2023-11-21T01:07:04;97327.91;;;7.44;94.67
62057;BME280;48016;50.284;18.860;2023-11-21T01:09:31;97325.60;;;7.44;94.49
62057;BME280;48016;50.284;18.860;2023-11-21T01:11:58;97327.25;;;7.42;94.50
62057;BME280;48016;50.284;18.860;2023-11-21T01:14:26;97328.06;;;7.42;94.55
62057;BME280;48016;50.284;18.860;2023-11-21T01:16:53;97326.75;;;7.39;94.51
62057;BME280;48016;50.284;18.860;2023-11-21T01:19:20;97326.80;;;7.40;94.56
62057;BME280;48016;50.284;18.860;2023-11-21T01:21:46;97323.95;;;7.39;94.40
62057;BME280;48016;50.284;18.860;2023-11-21T01:24:13;97323.45;;;7.36;94.25
62057;BME280;48016;50.284;18.860;2023-11-21T01:26:39;97324.41;;;7.36;94.17
62057;BME280;48016;50.284;18.860;2023-11-21T01:29:06;97327.96;;;7.36;94.11
62057;BME280;48016;50.284;18.860;2023-11-21T01:31:33;97326.13;;;7.35;93.99
62057;BME280;48016;50.284;18.860;2023-11-21T01:33:59;97332.52;;;7.35;93.84
62057;BME280;48016;50.284;18.860;2023-11-21T01:36:32;97334.45;;;7.34;93.78
62057;BME280;48016;50.284;18.860;2023-11-21T01:38:59;97341.55;;;7.33;93.74
62057;BME280;48016;50.284;18.860;2023-11-21T01:41:27;97340.14;;;7.32;93.74
62057;BME280;48016;50.284;18.860;2023-11-21T01:43:55;97340.79;;;7.33;93.77
62057;BME280;48016;50.284;18.860;2023-11-21T01:46:22;97339.83;;;7.34;93.76
62057;BME280;48016;50.284;18.860;2023-11-21T01:48:49;97340.30;;;7.33;93.72
62057;BME280;48016;50.284;18.860;2023-11-21T01:51:16;97340.63;;;7.32;93.77
62057;BME280;48016;50.284;18.860;2023-11-21T01:53:44;97341.98;;;7.33;93.72
62057;BME280;48016;50.284;18.860;2023-11-21T01:56:13;97344.75;;;7.31;93.58
62057;BME280;48016;50.284;18.860;2023-11-21T01:58:40;97344.27;;;7.30;93.64
62057;BME280;48016;50.284;18.860;2023-11-21T02:01:07;97347.52;;;7.29;93.65
62057;BME280;48016;50.284;18.860;2023-11-21T02:03:34;97346.29;;;7.29;93.62
62057;BME280;48016;50.284;18.860;2023-11-21T02:06:01;97346.06;;;7.27;93.46
62057;BME280;48016;50.284;18.860;2023-11-21T02:08:27;97350.40;;;7.24;93.54
62057;BME280;48016;50.284;18.860;2023-11-21T02:10:54;97352.65;;;7.23;93.52
62057;BME280;48016;50.284;18.860;2023-11-21T02:13:20;97349.63;;;7.22;93.45
62057;BME280;48016;50.284;18.860;2023-11-21T02:15:47;97351.70;;;7.19;93.43
62057;BME280;48016;50.284;18.860;2023-11-21T02:18:16;97347.41;;;7.20;93.54
62057;BME280;48016;50.284;18.860;2023-11-21T02:20:44;97349.08;;;7.20;93.37
62057;BME280;48016;50.284;18.860;2023-11-21T02:23:10;97348.90;;;7.19;93.35
62057;BME280;48016;50.284;18.860;2023-11-21T02:25:39;97349.00;;;7.17;93.40
62057;BME280;48016;50.284;18.860;2023-11-21T02:28:05;97351.30;;;7.16;93.44
62057;BME280;48016;50.284;18.860;2023-11-21T02:30:33;97347.59;;;7.17;93.33
62057;BME280;48016;50.284;18.860;2023-11-21T02:33:01;97348.40;;;7.18;93.31
62057;BME280;48016;50.284;18.860;2023-11-21T02:35:28;97347.81;;;7.18;93.38
62057;BME280;48016;50.284;18.860;2023-11-21T02:37:55;97346.58;;;7.17;93.24
62057;BME280;48016;50.284;18.860;2023-11-21T02:40:21;97345.70;;;7.16;93.20
62057;BME280;48016;50.284;18.860;2023-11-21T02:42:48;97346.27;;;7.13;93.20
62057;BME280;48016;50.284;18.860;2023-11-21T02:45:18;97344.86;;;7.11;93.29
62057;BME280;48016;50.284;18.860;2023-11-21T02:47:47;97342.60;;;7.11;93.30
62057;BME280;48016;50.284;18.860;2023-11-21T02:50:15;97346.91;;;7.12;93.40
62057;BME280;48016;50.284;18.860;2023-11-21T02:52:41;97346.52;;;7.11;93.35
62057;BME280;48016;50.284;18.860;2023-11-21T02:55:08;97350.50;;;7.11;93.26
62057;BME280;48016;50.284;18.860;2023-11-21T02:57:35;97347.36;;;7.09;93.20
62057;BME280;48016;50.284;18.860;2023-11-21T03:00:02;97351.89;;;7.09;93.17
62057;BME280;48016;50.284;18.860;2023-11-21T03:02:29;97353.80;;;7.08;93.09
62057;BME280;48016;50.284;18.860;2023-11-21T03:04:55;97358.86;;;7.08;93.27
62057;BME280;48016;50.284;18.860;2023-11-21T03:07:22;97366.49;;;7.08;93.10
62057;BME280;48016;50.284;18.860;2023-11-21T03:09:48;97366.59;;;7.06;93.01
62057;BME280;48016;50.284;18.860;2023-11-21T03:12:15;97363.02;;;7.05;93.14
62057;BME280;48016;50.284;18.860;2023-11-21T03:14:42;97362.54;;;7.05;93.19
62057;BME280;48016;50.284;18.860;2023-11-21T03:17:08;97363.61;;;7.05;93.21
62057;BME280;48016;50.284;18.860;2023-11-21T03:19:35;97360.71;;;7.05;93.25
62057;BME280;48016;50.284;18.860;2023-11-21T03:22:01;97362.35;;;7.07;93.37
62057;BME280;48016;50.284;18.860;2023-11-21T03:24:28;97364.69;;;7.10;93.29
62057;BME280;48016;50.284;18.860;2023-11-21T03:26:55;97366.61;;;7.10;93.13
62057;BME280;48016;50.284;18.860;2023-11-21T03:29:22;97367.20;;;7.08;93.07
62057;BME280;48016;50.284;18.860;2023-11-21T03:31:48;97371.81;;;7.08;93.16
62057;BME280;48016;50.284;18.860;2023-11-21T03:34:23;97367.13;;;7.07;93.12
62057;BME280;48016;50.284;18.860;2023-11-21T03:36:51;97370.46;;;7.07;93.17
62057;BME280;48016;50.284;18.860;2023-11-21T03:39:20;97375.41;;;7.06;93.17
62057;BME280;48016;50.284;18.860;2023-11-21T03:41:47;97375.84;;;7.06;93.24
62057;BME280;48016;50.284;18.860;2023-11-21T03:44:14;97380.36;;;7.08;93.27
62057;BME280;48016;50.284;18.860;2023-11-21T03:46:40;97379.44;;;7.07;93.12
62057;BME280;48016;50.284;18.860;2023-11-21T03:49:07;97375.67;;;7.07;93.24
62057;BME280;48016;50.284;18.860;2023-11-21T03:51:33;97380.09;;;7.08;93.29
62057;BME280;48016;50.284;18.860;2023-11-21T03:54:00;97376.69;;;7.11;93.36
62057;BME280;48016;50.284;18.860;2023-11-21T03:56:27;97377.56;;;7.13;93.35
62057;BME280;48016;50.284;18.860;2023-11-21T03:58:53;97377.05;;;7.15;93.27
62057;BME280;48016;50.284;18.860;2023-11-21T04:01:24;97381.62;;;7.16;93.20
62057;BME280;48016;50.284;18.860;2023-11-21T04:03:51;97377.20;;;7.15;93.18
62057;BME280;48016;50.284;18.860;2023-11-21T04:06:18;97379.25;;;7.14;93.16
62057;BME280;48016;50.284;18.860;2023-11-21T04:08:45;97380.64;;;7.15;93.17
62057;BME280;48016;50.284;18.860;2023-11-21T04:11:12;97385.32;;;7.15;93.19
62057;BME280;48016;50.284;18.860;2023-11-21T04:13:40;97389.83;;;7.14;93.14
62057;BME280;48016;50.284;18.860;2023-11-21T04:16:07;97391.06;;;7.13;93.14
62057;BME280;48016;50.284;18.860;2023-11-21T04:18:36;97389.81;;;7.14;93.21
62057;BME280;48016;50.284;18.860;2023-11-21T04:21:05;97389.03;;;7.15;93.36
62057;BME280;48016;50.284;18.860;2023-11-21T04:23:32;97390.86;;;7.17;93.29
62057;BME280;48016;50.284;18.860;2023-11-21T04:25:58;97390.07;;;7.17;93.27
62057;BME280;48016;50.284;18.860;2023-11-21T04:28:25;97394.55;;;7.17;93.26
62057;BME280;48016;50.284;18.860;2023-11-21T04:30:51;97391.00;;;7.18;93.24
62057;BME280;48016;50.284;18.860;2023-11-21T04:33:18;97393.83;;;7.17;93.18
62057;BME280;48016;50.284;18.860;2023-11-21T04:35:45;97400.82;;;7.17;93.28
62057;BME280;48016;50.284;18.860;2023-11-21T04:38:12;97399.70;;;7.17;93.30
62057;BME280;48016;50.284;18.860;2023-11-21T04:40:39;97400.64;;;7.15;93.28
62057;BME280;48016;50.284;18.860;2023-11-21T04:43:05;97400.95;;;7.14;93.27
62057;BME280;48016;50.284;18.860;2023-11-21T04:45:32;97399.44;;;7.14;93.28
62057;BME280;48016;50.284;18.860;2023-11-21T04:47:59;97403.59;;;7.14;93.43
62057;BME280;48016;50.284;18.860;2023-11-21T04:50:25;97404.08;;;7.14;93.44
62057;BME280;48016;50.284;18.860;2023-11-21T04:52:53;97407.27;;;7.15;93.44
62057;BME280;48016;50.284;18.860;2023-11-21T04:55:20;97407.05;;;7.16;93.33
62057;BME280;48016;50.284;18.860;2023-11-21T04:57:47;97407.73;;;7.16;93.31
62057;BME280;48016;50.284;18.860;2023-11-21T05:00:14;97411.45;;;7.17;93.35
62057;BME280;48016;50.284;18.860;2023-11-21T05:02:42;97411.52;;;7.18;93.47
62057;BME280;48016;50.284;18.860;2023-11-21T05:05:10;97413.13;;;7.17;93.34
62057;BME280;48016;50.284;18.860;2023-11-21T05:07:38;97413.89;;;7.17;93.38
62057;BME280;48016;50.284;18.860;2023-11-21T05:10:08;97413.73;;;7.17;93.44
62057;BME280;48016;50.284;18.860;2023-11-21T05:12:38;97412.27;;;7.16;93.43
62057;BME280;48016;50.284;18.860;2023-11-21T05:15:05;97411.61;;;7.15;93.38
62057;BME280;48016;50.284;18.860;2023-11-21T05:17:39;97411.43;;;7.14;93.62
62057;BME280;48016;50.284;18.860;2023-11-21T05:20:10;97411.61;;;7.15;93.58
62057;BME280;48016;50.284;18.860;2023-11-21T05:22:37;97411.17;;;7.15;93.53
62057;BME280;48016;50.284;18.860;2023-11-21T05:25:05;97413.44;;;7.16;93.69
62057;BME280;48016;50.284;18.860;2023-11-21T05:27:32;97414.68;;;7.17;93.59
62057;BME280;48016;50.284;18.860;2023-11-21T05:29:58;97417.26;;;7.15;93.45
62057;BME280;48016;50.284;18.860;2023-11-21T05:32:25;97423.52;;;7.12;93.38
62057;BME280;48016;50.284;18.860;2023-11-21T05:34:52;97425.38;;;7.10;93.54
62057;BME280;48016;50.284;18.860;2023-11-21T05:37:19;97427.80;;;7.09;93.55
62057;BME280;48016;50.284;18.860;2023-11-21T05:39:45;97426.08;;;7.10;93.76
62057;BME280;48016;50.284;18.860;2023-11-21T05:42:13;97426.58;;;7.11;93.75
62057;BME280;48016;50.284;18.860;2023-11-21T05:44:41;97430.27;;;7.09;93.57
62057;BME280;48016;50.284;18.860;2023-11-21T05:47:08;97432.05;;;7.09;93.70
62057;BME280;48016;50.284;18.860;2023-11-21T05:49:36;97438.61;;;7.11;93.65
62057;BME280;48016;50.284;18.860;2023-11-21T05:52:03;97438.14;;;7.12;93.75
62057;BME280;48016;50.284;18.860;2023-11-21T05:54:32;97438.50;;;7.11;93.64
62057;BME280;48016;50.284;18.860;2023-11-21T05:56:59;97442.98;;;7.14;93.86
62057;BME280;48016;50.284;18.860;2023-11-21T05:59:25;97442.58;;;7.16;93.84
62057;BME280;48016;50.284;18.860;2023-11-21T06:01:52;97445.21;;;7.16;93.68
62057;BME280;48016;50.284;18.860;2023-11-21T06:04:20;97450.39;;;7.17;93.81
62057;BME280;48016;50.284;18.860;2023-11-21T06:06:51;97458.00;;;7.19;93.84
62057;BME280;48016;50.284;18.860;2023-11-21T06:09:19;97458.87;;;7.20;93.92
62057;BME280;48016;50.284;18.860;2023-11-21T06:11:46;97456.67;;;7.21;93.75
62057;BME280;48016;50.284;18.860;2023-11-21T06:14:12;97459.96;;;7.21;93.74
62057;BME280;48016;50.284;18.860;2023-11-21T06:16:39;97464.17;;;7.23;93.80
62057;BME280;48016;50.284;18.860;2023-11-21T06:19:06;97467.89;;;7.26;93.91
62057;BME280;48016;50.284;18.860;2023-11-21T06:21:33;97470.50;;;7.28;93.62
62057;BME280;48016;50.284;18.860;2023-11-21T06:24:00;97473.45;;;7.27;93.63
62057;BME280;48016;50.284;18.860;2023-11-21T06:26:27;97477.80;;;7.28;93.59
62057;BME280;48016;50.284;18.860;2023-11-21T06:28:54;97475.55;;;7.28;93.59
62057;BME280;48016;50.284;18.860;2023-11-21T06:31:22;97477.02;;;7.29;93.54
62057;BME280;48016;50.284;18.860;2023-11-21T06:33:49;97478.80;;;7.29;93.46
62057;BME280;48016;50.284;18.860;2023-11-21T06:36:18;97480.91;;;7.30;93.37
62057;BME280;48016;50.284;18.860;2023-11-21T06:38:44;97479.13;;;7.30;93.41
62057;BME280;48016;50.284;18.860;2023-11-21T06:41:12;97481.45;;;7.31;93.45
62057;BME280;48016;50.284;18.860;2023-11-21T06:43:42;97481.60;;;7.31;93.31
62057;BME280;48016;50.284;18.860;2023-11-21T06:46:13;97482.23;;;7.29;93.26
62057;BME280;48016;50.284;18.860;2023-11-21T06:48:42;97485.35;;;7.29;93.37
62057;BME280;48016;50.284;18.860;2023-11-21T06:51:09;97483.36;;;7.29;93.25
62057;BME280;48016;50.284;18.860;2023-11-21T06:53:37;97488.09;;;7.29;93.38
62057;BME280;48016;50.284;18.860;2023-11-21T06:56:03;97490.63;;;7.31;93.62
62057;BME280;48016;50.284;18.860;2023-11-21T06:58:30;97493.98;;;7.32;93.48
62057;BME280;48016;50.284;18.860;2023-11-21T07:00:57;97493.83;;;7.32;93.38
62057;BME280;48016;50.284;18.860;2023-11-21T07:03:24;97499.02;;;7.29;93.42
62057;BME280;48016;50.284;18.860;2023-11-21T07:05:51;97500.77;;;7.27;93.36
62057;BME280;48016;50.284;18.860;2023-11-21T07:08:18;97502.95;;;7.26;93.37
62057;BME280;48016;50.284;18.860;2023-11-21T07:10:44;97502.01;;;7.27;93.33
62057;BME280;48016;50.284;18.860;2023-11-21T07:13:11;97496.83;;;7.26;93.21
62057;BME280;48016;50.284;18.860;2023-11-21T07:15:38;97499.73;;;7.26;93.21
62057;BME280;48016;50.284;18.860;2023-11-21T07:18:05;97501.94;;;7.26;93.20
62057;BME280;48016;50.284;18.860;2023-11-21T07:20:34;97504.08;;;7.26;93.26
62057;BME280;48016;50.284;18.860;2023-11-21T07:23:00;97506.34;;;7.26;93.21
62057;BME280;48016;50.284;18.860;2023-11-21T07:25:27;97507.28;;;7.27;93.29
62057;BME280;48016;50.284;18.860;2023-11-21T07:27:53;97506.73;;;7.28;93.18
62057;BME280;48016;50.284;18.860;2023-11-21T07:30:21;97508.06;;;7.31;93.27
62057;BME280;48016;50.284;18.860;2023-11-21T07:32:49;97510.02;;;7.33;93.19
62057;BME280;48016;50.284;18.860;2023-11-21T07:35:15;97512.15;;;7.36;93.19
62057;BME280;48016;50.284;18.860;2023-11-21T07:37:42;97507.76;;;7.37;93.07
62057;BME280;48016;50.284;18.860;2023-11-21T07:40:09;97506.10;;;7.39;93.06
62057;BME280;48016;50.284;18.860;2023-11-21T07:42:37;97510.67;;;7.40;93.03
62057;BME280;48016;50.284;18.860;2023-11-21T07:45:05;97509.14;;;7.42;93.08
62057;BME280;48016;50.284;18.860;2023-11-21T07:47:33;97516.05;;;7.45;92.99
62057;BME280;48016;50.284;18.860;2023-11-21T07:50:02;97514.61;;;7.44;92.74
62057;BME280;48016;50.284;18.860;2023-11-21T07:52:30;97521.17;;;7.44;92.87
62057;BME280;48016;50.284;18.860;2023-11-21T07:54:56;97518.63;;;7.44;92.85
62057;BME280;48016;50.284;18.860;2023-11-21T07:57:23;97523.66;;;7.46;93.03
62057;BME280;48016;50.284;18.860;2023-11-21T07:59:49;97518.67;;;7.47;92.90
62057;BME280;48016;50.284;18.860;2023-11-21T08:02:16;97518.72;;;7.47;92.84
62057;BME280;48016;50.284;18.860;2023-11-21T08:04:44;97518.35;;;7.48;92.95
62057;BME280;48016;50.284;18.860;2023-11-21T08:07:11;97519.96;;;7.48;92.97
62057;BME280;48016;50.284;18.860;2023-11-21T08:09:37;97518.45;;;7.48;92.78
62057;BME280;48016;50.284;18.860;2023-11-21T08:12:04;97521.84;;;7.47;92.78
62057;BME280;48016;50.284;18.860;2023-11-21T08:14:31;97522.91;;;7.46;92.72
62057;BME280;48016;50.284;18.860;2023-11-21T08:16:57;97527.01;;;7.48;92.73
62057;BME280;48016;50.284;18.860;2023-11-21T08:19:24;97528.19;;;7.48;92.59
62057;BME280;48016;50.284;18.860;2023-11-21T08:21:53;97527.15;;;7.50;92.70
62057;BME280;48016;50.284;18.860;2023-11-21T08:24:21;97527.92;;;7.53;92.70
62057;BME280;48016;50.284;18.860;2023-11-21T08:26:48;97524.74;;;7.58;92.65
62057;BME280;48016;50.284;18.860;2023-11-21T08:29:14;97529.98;;;7.61;92.48
62057;BME280;48016;50.284;18.860;2023-11-21T08:31:41;97529.30;;;7.63;92.48
62057;BME280;48016;50.284;18.860;2023-11-21T08:34:08;97525.83;;;7.65;92.34
62057;BME280;48016;50.284;18.860;2023-11-21T08:36:35;97535.64;;;7.68;92.29
62057;BME280;48016;50.284;18.860;2023-11-21T08:39:01;97539.67;;;7.72;92.40
62057;BME280;48016;50.284;18.860;2023-11-21T08:41:28;97539.06;;;7.77;92.26
62057;BME280;48016;50.284;18.860;2023-11-21T08:43:54;97545.89;;;7.81;92.19
62057;BME280;48016;50.284;18.860;2023-11-21T08:46:21;97547.89;;;7.83;92.01
62057;BME280;48016;50.284;18.860;2023-11-21T08:48:49;97544.59;;;7.86;92.06
62057;BME280;48016;50.284;18.860;2023-11-21T08:51:18;97547.27;;;7.92;92.09
62057;BME280;48016;50.284;18.860;2023-11-21T08:53:45;97545.58;;;8.01;91.94
62057;BME280;48016;50.284;18.860;2023-11-21T08:56:15;97547.48;;;8.09;91.92
62057;BME280;48016;50.284;18.860;2023-11-21T08:58:41;97548.94;;;8.18;91.89
62057;BME280;48016;50.284;18.860;2023-11-21T09:01:08;97545.70;;;8.23;91.61
62057;BME280;48016;50.284;18.860;2023-11-21T09:03:34;97549.77;;;8.28;91.41
62057;BME280;48016;50.284;18.860;2023-11-21T09:06:01;97552.98;;;8.32;91.53
62057;BME280;48016;50.284;18.860;2023-11-21T09:08:28;97549.93;;;8.36;91.39
62057;BME280;48016;50.284;18.860;2023-11-21T09:10:55;97552.86;;;8.40;91.49
62057;BME280;48016;50.284;18.860;2023-11-21T09:13:22;97556.06;;;8.44;91.36
62057;BME280;48016;50.284;18.860;2023-11-21T09:15:51;97555.16;;;8.48;91.15
62057;BME280;48016;50.284;18.860;2023-11-21T09:18:17;97557.94;;;8.51;91.05
62057;BME280;48016;50.284;18.860;2023-11-21T09:20:44;97556.84;;;8.56;91.03
62057;BME280;48016;50.284;18.860;2023-11-21T09:23:10;97554.92;;;8.59;91.01
62057;BME280;48016;50.284;18.860;2023-11-21T09:25:37;97556.99;;;8.66;91.07
62057;BME280;48016;50.284;18.860;2023-11-21T09:28:05;97553.27;;;8.74;90.84
62057;BME280;48016;50.284;18.860;2023-11-21T09:30:34;97548.27;;;8.84;90.62
62057;BME280;48016;50.284;18.860;2023-11-21T09:33:02;97543.78;;;8.94;90.44
62057;BME280;48016;50.284;18.860;2023-11-21T09:35:28;97542.96;;;9.02;90.12
62057;BME280;48016;50.284;18.860;2023-11-21T09:37:55;97543.74;;;9.09;90.10
62057;BME280;48016;50.284;18.860;2023-11-21T09:40:22;97544.35;;;9.14;89.68
62057;BME280;48016;50.284;18.860;2023-11-21T09:42:58;97547.52;;;9.21;89.65
62057;BME280;48016;50.284;18.860;2023-11-21T09:45:27;97550.50;;;9.31;89.51
62057;BME280;48016;50.284;18.860;2023-11-21T09:47:56;97547.71;;;9.31;89.28
62057;BME280;48016;50.284;18.860;2023-11-21T09:50:23;97545.67;;;9.36;89.05
62057;BME280;48016;50.284;18.860;2023-11-21T09:53:11;97544.36;;;9.45;88.93
62057;BME280;48016;50.284;18.860;2023-11-21T09:55:43;97548.99;;;9.47;88.96
62057;BME280;48016;50.284;18.860;2023-11-21T09:58:10;97546.27;;;9.41;87.62
62057;BME280;48016;50.284;18.860;2023-11-21T10:00:45;97547.92;;;9.31;87.81
62057;BME280;48016;50.284;18.860;2023-11-21T10:03:12;97549.52;;;9.25;88.14
62057;BME280;48016;50.284;18.860;2023-11-21T10:05:42;97551.77;;;9.20;88.06
62057;BME280;48016;50.284;18.860;2023-11-21T10:08:10;97549.25;;;9.14;87.72
62057;BME280;48016;50.284;18.860;2023-11-21T10:10:38;97549.89;;;9.08;87.37
62057;BME280;48016;50.284;18.860;2023-11-21T10:13:11;97552.66;;;9.01;87.34
62057;BME280;48016;50.284;18.860;2023-11-21T10:15:40;97554.45;;;8.92;87.21
62057;BME280;48016;50.284;18.860;2023-11-21T10:18:11;97558.40;;;8.85;87.27
62057;BME280;48016;50.284;18.860;2023-11-21T10:20:38;97559.53;;;8.74;86.90
62057;BME280;48016;50.284;18.860;2023-11-21T10:23:04;97560.59;;;8.63;86.87
62057;BME280;48016;50.284;18.860;2023-11-21T10:25:33;97559.29;;;8.52;86.76
62057;BME280;48016;50.284;18.860;2023-11-21T10:28:02;97565.00;;;8.44;86.61
62057;BME280;48016;50.284;18.860;2023-11-21T10:30:38;97562.38;;;8.36;86.17
62057;BME280;48016;50.284;18.860;2023-11-21T10:33:07;97560.02;;;8.31;86.07
62057;BME280;48016;50.284;18.860;2023-11-21T10:35:47;97557.42;;;8.28;86.11
62057;BME280;48016;50.284;18.860;2023-11-21T10:38:17;97554.46;;;8.28;86.02
62057;BME280;48016;50.284;18.860;2023-11-21T10:40:45;97555.01;;;8.28;86.00
62057;BME280;48016;50.284;18.860;2023-11-21T10:43:13;97558.04;;;8.32;85.76
62057;BME280;48016;50.284;18.860;2023-11-21T10:45:42;97556.09;;;8.36;85.66
62057;BME280;48016;50.284;18.860;2023-11-21T10:48:10;97556.12;;;8.39;85.53
62057;BME280;48016;50.284;18.860;2023-11-21T10:50:37;97553.13;;;8.41;85.47
62057;BME280;48016;50.284;18.860;2023-11-21T10:53:04;97548.63;;;8.44;85.43
62057;BME280;48016;50.284;18.860;2023-11-21T10:55:33;97554.18;;;8.46;85.32
62057;BME280;48016;50.284;18.860;2023-11-21T10:58:02;97555.47;;;8.52;85.27
62057;BME280;48016;50.284;18.860;2023-11-21T11:00:32;97555.25;;;8.61;85.01
62057;BME280;48016;50.284;18.860;2023-11-21T11:02:59;97555.40;;;8.69;85.02
62057;BME280;48016;50.284;18.860;2023-11-21T11:05:29;97555.14;;;8.78;84.95
62057;BME280;48016;50.284;18.860;2023-11-21T11:10:27;97551.72;;;8.97;84.88
62057;BME280;48016;50.284;18.860;2023-11-21T11:12:53;97552.08;;;9.06;84.70
62057;BME280;48016;50.284;18.860;2023-11-21T11:15:21;97552.98;;;9.12;84.60
62057;BME280;48016;50.284;18.860;2023-11-21T11:17:48;97553.27;;;9.18;84.16
62057;BME280;48016;50.284;18.860;2023-11-21T11:20:16;97552.05;;;9.23;84.03
62057;BME280;48016;50.284;18.860;2023-11-21T11:25:27;97547.19;;;9.20;82.76
62057;BME280;48016;50.284;18.860;2023-11-21T11:28:20;97548.41;;;9.16;82.91
62057;BME280;48016;50.284;18.860;2023-11-21T11:31:04;97547.67;;;9.11;82.62
62057;BME280;48016;50.284;18.860;2023-11-21T11:33:42;97546.70;;;9.06;82.52
62057;BME280;48016;50.284;18.860;2023-11-21T11:36:17;97547.83;;;9.03;82.45
62057;BME280;48016;50.284;18.860;2023-11-21T11:38:46;97550.30;;;9.03;82.63
62057;BME280;48016;50.284;18.860;2023-11-21T11:41:13;97549.91;;;9.01;82.68
62057;BME280;48016;50.284;18.860;2023-11-21T11:43:50;97547.63;;;8.94;82.62
62057;BME280;48016;50.284;18.860;2023-11-21T11:46:16;97552.16;;;8.88;82.56
62057;BME280;48016;50.284;18.860;2023-11-21T11:48:43;97552.20;;;8.83;82.85
62057;BME280;48016;50.284;18.860;2023-11-21T11:51:13;97556.17;;;8.80;83.03
62057;BME280;48016;50.284;18.860;2023-11-21T11:53:48;97557.38;;;8.75;82.88
62057;BME280;48016;50.284;18.860;2023-11-21T11:56:27;97557.95;;;8.70;82.76
62057;BME280;48016;50.284;18.860;2023-11-21T11:58:56;97559.00;;;8.66;82.97
62057;BME280;48016;50.284;18.860;2023-11-21T12:01:25;97562.69;;;8.62;83.21
62057;BME280;48016;50.284;18.860;2023-11-21T12:06:52;97568.38;;;8.50;82.76
62057;BME280;48016;50.284;18.860;2023-11-21T12:09:21;97563.23;;;8.46;83.00
62057;BME280;48016;50.284;18.860;2023-11-21T12:11:48;97564.94;;;8.43;83.28
62057;BME280;48016;50.284;18.860;2023-11-21T12:14:16;97565.27;;;8.43;83.29
62057;BME280;48016;50.284;18.860;2023-11-21T12:16:43;97565.69;;;8.42;83.13
62057;BME280;48016;50.284;18.860;2023-11-21T12:19:11;97567.18;;;8.42;83.39
62057;BME280;48016;50.284;18.860;2023-11-21T12:21:38;97562.29;;;8.42;83.44
62057;BME280;48016;50.284;18.860;2023-11-21T12:24:07;97566.59;;;8.41;83.46
62057;BME280;48016;50.284;18.860;2023-11-21T12:26:40;97565.04;;;8.41;83.56
62057;BME280;48016;50.284;18.860;2023-11-21T12:29:07;97556.41;;;8.41;83.54
62057;BME280;48016;50.284;18.860;2023-11-21T12:31:37;97559.05;;;8.41;83.49
62057;BME280;48016;50.284;18.860;2023-11-21T12:34:04;97560.27;;;8.40;83.46
62057;BME280;48016;50.284;18.860;2023-11-21T12:36:31;97565.10;;;8.38;83.47
62057;BME280;48016;50.284;18.860;2023-11-21T12:38:58;97566.23;;;8.34;83.43
62057;BME280;48016;50.284;18.860;2023-11-21T12:41:24;97569.91;;;8.28;83.53
62057;BME280;48016;50.284;18.860;2023-11-21T12:43:51;97572.04;;;8.23;83.60
62057;BME280;48016;50.284;18.860;2023-11-21T12:46:19;97570.23;;;8.19;83.71
62057;BME280;48016;50.284;18.860;2023-11-21T12:48:46;97570.09;;;8.17;84.09
62057;BME280;48016;50.284;18.860;2023-11-21T12:51:13;97570.00;;;8.16;84.41
62057;BME280;48016;50.284;18.860;2023-11-21T12:53:44;97570.89;;;8.16;84.53
62057;BME280;48016;50.284;18.860;2023-11-21T12:56:11;97575.54;;;8.16;84.78
62057;BME280;48016;50.284;18.860;2023-11-21T12:58:39;97578.29;;;8.18;84.91
62057;BME280;48016;50.284;18.860;2023-11-21T13:01:08;97578.41;;;8.21;85.04
62057;BME280;48016;50.284;18.860;2023-11-21T13:03:38;97582.21;;;8.24;85.17
62057;BME280;48016;50.284;18.860;2023-11-21T13:06:07;97581.31;;;8.27;85.23
62057;BME280;48016;50.284;18.860;2023-11-21T13:08:36;97581.02;;;8.30;85.48
62057;BME280;48016;50.284;18.860;2023-11-21T13:11:06;97585.56;;;8.32;85.73